^^
Datos históricos de la estación: Murcia-Puente Tocinos
Diario Informe para Octubre 19, 2021 Unidades:  Ambas    Ingés   Métrico
Diario Semanal Mensual Anual
  Máxima: Mínima: Promedio:
Temperatura: 75.9 °F /  24.4 °C 62.1 °F /  16.7 °C 68.2 °F /  20.1 °C
Punto de rocio: 63.3 °F /  17.4 °C 56.3 °F /  13.5 °C 59.7 °F /  15.4 °C
Humedad: 90.9% 52% 76%
Velocidad viento: 10.2mph /  16.4km/h - 3.7mph /  6km/h
Racha viento: 19mph /  30.6km/h - -
Viento- - ESE
Presión: 30.3 in /  1026.5 hPa 30.2 in /  1023.6 hPa -
Precipitación: 0 in /  0.0 mm    
 
 
Tabla de datos para Octubre 19, 2021
Hora Temperatura Punto de rocio Presión Viento Velocidad viento Racha viento Humedad Intensidad lluvia(por hora) Nubes
00:04 66.6 °F /  19.2 °C 61.9 °F /  16.6 °C 30.3in /  1024.5hPa NNO 1.8mph /  2.9km/h 2.3mph /  3.7km/h 85% 0in /  0.0mm
00:09 66.6 °F /  19.2 °C 61.9 °F /  16.6 °C 30.3in /  1024.5hPa NNO 1mph /  1.6km/h 2.9mph /  4.7km/h 85% 0in /  0.0mm
00:14 66.6 °F /  19.2 °C 61.9 °F /  16.6 °C 30.3in /  1024.5hPa Calm   4.6mph /  7.4km/h 85% 0in /  0.0mm
00:19 66.6 °F /  19.2 °C 61.9 °F /  16.6 °C 30.3in /  1024.5hPa NO 0.8mph /  1.3km/h 3.5mph /  5.6km/h 85% 0in /  0.0mm
00:24 66.4 °F /  19.1 °C 61.7 °F /  16.5 °C 30.3in /  1024.6hPa NO 2mph /  3.2km/h 3.6mph /  5.8km/h 85% 0in /  0.0mm
00:29 66.4 °F /  19.1 °C 61.9 °F /  16.6 °C 30.3in /  1024.6hPa NNE 2mph /  3.2km/h 4.6mph /  7.4km/h 85.5% 0in /  0.0mm
00:34 66.4 °F /  19.1 °C 62.1 °F /  16.7 °C 30.3in /  1024.6hPa ENE 2mph /  3.2km/h 3.5mph /  5.6km/h 86% 0in /  0.0mm
00:39 66 °F /  18.9 °C 61.7 °F /  16.5 °C 30.3in /  1024.6hPa Este 2.2mph /  3.5km/h 3.6mph /  5.8km/h 85.5% 0in /  0.0mm
00:44 66 °F /  18.9 °C 61.7 °F /  16.5 °C 30.3in /  1024.5hPa Este 2.4mph /  3.9km/h 3.5mph /  5.6km/h 86% 0in /  0.0mm
00:49 65.8 °F /  18.8 °C 61.5 °F /  16.4 °C 30.3in /  1024.5hPa Este 2.4mph /  3.9km/h 4.6mph /  7.4km/h 85.9% 0in /  0.0mm
00:54 65.7 °F /  18.7 °C 61.2 °F /  16.2 °C 30.3in /  1024.5hPa Este 2.4mph /  3.9km/h 2.9mph /  4.7km/h 85.3% 0in /  0.0mm
00:59 65.5 °F /  18.6 °C 61 °F /  16.1 °C 30.3in /  1024.5hPa Este 1.9mph /  3.1km/h 2.9mph /  4.7km/h 85.2% 0in /  0.0mm
01:04 65.3 °F /  18.5 °C 61 °F /  16.1 °C 30.3in /  1024.5hPa Este 1.4mph /  2.3km/h   86% 0in /  0.0mm
01:09 65.3 °F /  18.5 °C 61 °F /  16.1 °C 30.3in /  1024.5hPa Este 0.8mph /  1.3km/h   86% 0in /  0.0mm
01:14 65.1 °F /  18.4 °C 60.8 °F /  16 °C 30.3in /  1024.5hPa Calm     86% 0in /  0.0mm
01:19 65.1 °F /  18.4 °C 60.8 °F /  16 °C 30.3in /  1024.5hPa Calm   2.9mph /  4.7km/h 86% 0in /  0.0mm
01:24 65.1 °F /  18.4 °C 60.8 °F /  16 °C 30.3in /  1024.5hPa Calm   2.4mph /  3.9km/h 86% 0in /  0.0mm
01:29 64.9 °F /  18.3 °C 60.6 °F /  15.9 °C 30.3in /  1024.5hPa Este 0.7mph /  1.2km/h 3.5mph /  5.6km/h 86% 0in /  0.0mm
01:34 64.9 °F /  18.3 °C 60.6 °F /  15.9 °C 30.3in /  1024.5hPa ENE 1.8mph /  2.9km/h 3.6mph /  5.8km/h 86.1% 0in /  0.0mm
01:39 64.8 °F /  18.2 °C 60.8 °F /  16 °C 30.3in /  1024.5hPa North 1.9mph /  3km/h 3.5mph /  5.6km/h 87% 0in /  0.0mm
01:44 64.6 °F /  18.1 °C 60.6 °F /  15.9 °C 30.3in /  1024.4hPa North 2mph /  3.2km/h 2.3mph /  3.7km/h 87% 0in /  0.0mm
01:49 64.6 °F /  18.1 °C 60.6 °F /  15.9 °C 30.3in /  1024.4hPa North 1.2mph /  1.9km/h 2.9mph /  4.7km/h 87% 0in /  0.0mm
01:54 64.6 °F /  18.1 °C 60.6 °F /  15.9 °C 30.3in /  1024.5hPa Calm   4.6mph /  7.4km/h 87% 0in /  0.0mm
01:59 64.6 °F /  18.1 °C 60.6 °F /  15.9 °C 30.3in /  1024.5hPa ESE 1.1mph /  1.7km/h 4.7mph /  7.6km/h 87% 0in /  0.0mm
02:04 64.4 °F /  18 °C 60.4 °F /  15.8 °C 30.3in /  1024.5hPa ESE 2.4mph /  3.9km/h 4.6mph /  7.4km/h 87% 0in /  0.0mm
02:09 64.4 °F /  18 °C 60.3 °F /  15.7 °C 30.3in /  1024.5hPa ESE 2.6mph /  4.2km/h 4.6mph /  7.4km/h 86.7% 0in /  0.0mm
02:14 64.2 °F /  17.9 °C 59.9 °F /  15.5 °C 30.3in /  1024.5hPa SE 2.9mph /  4.7km/h 4.6mph /  7.4km/h 86% 0in /  0.0mm
02:19 64.2 °F /  17.9 °C 60.3 °F /  15.7 °C 30.3in /  1024.5hPa SE 2.5mph /  4.1km/h 2.9mph /  4.7km/h 86.8% 0in /  0.0mm
02:24 64 °F /  17.8 °C 60.1 °F /  15.6 °C 30.3in /  1024.6hPa SE 2mph /  3.2km/h   87% 0in /  0.0mm
02:29 64 °F /  17.8 °C 60.1 °F /  15.6 °C 30.3in /  1024.6hPa SE 1.2mph /  1.9km/h 2.9mph /  4.7km/h 87% 0in /  0.0mm
02:34 64.2 °F /  17.9 °C 60.3 °F /  15.7 °C 30.3in /  1024.6hPa Calm   2.9mph /  4.7km/h 87% 0in /  0.0mm
02:39 64.2 °F /  17.9 °C 60.3 °F /  15.7 °C 30.3in /  1024.6hPa SE 0.6mph /  1km/h 3.5mph /  5.6km/h 87% 0in /  0.0mm
02:44 64.2 °F /  17.9 °C 60.3 °F /  15.7 °C 30.3in /  1024.5hPa SE 1.4mph /  2.3km/h 3.5mph /  5.6km/h 87% 0in /  0.0mm
02:49 64.2 °F /  17.9 °C 60.3 °F /  15.7 °C 30.3in /  1024.5hPa SE 1.4mph /  2.3km/h   87% 0in /  0.0mm
02:54 64.2 °F /  17.9 °C 60.3 °F /  15.7 °C 30.3in /  1024.6hPa SE 1.4mph /  2.3km/h 2.4mph /  3.9km/h 87% 0in /  0.0mm
02:59 64.2 °F /  17.9 °C 60.3 °F /  15.7 °C 30.3in /  1024.6hPa SE 0.8mph /  1.3km/h 2.9mph /  4.7km/h 87% 0in /  0.0mm
03:04 64.2 °F /  17.9 °C 60.3 °F /  15.7 °C 30.3in /  1024.6hPa Calm   1.4mph /  2.3km/h 87% 0in /  0.0mm
03:09 64.2 °F /  17.9 °C 60.3 °F /  15.7 °C 30.3in /  1024.6hPa Calm   3.6mph /  5.8km/h 87% 0in /  0.0mm
03:14 64.2 °F /  17.9 °C 60.3 °F /  15.7 °C 30.3in /  1024.5hPa Calm   3.5mph /  5.6km/h 87% 0in /  0.0mm
03:19 64.2 °F /  17.9 °C 60.3 °F /  15.7 °C 30.3in /  1024.5hPa SE 0.8mph /  1.3km/h 1.2mph /  1.9km/h 87% 0in /  0.0mm
03:24 64.2 °F /  17.9 °C 60.3 °F /  15.7 °C 30.3in /  1024.6hPa SE 1.8mph /  2.9km/h 3.1mph /  5km/h 87% 0in /  0.0mm
03:29 64.4 °F /  18 °C 60.4 °F /  15.8 °C 30.3in /  1024.6hPa SE 1.6mph /  2.6km/h 3.6mph /  5.8km/h 87% 0in /  0.0mm
03:34 64.4 °F /  18 °C 60.4 °F /  15.8 °C 30.3in /  1024.6hPa SE 1.4mph /  2.3km/h 2.4mph /  3.9km/h 87% 0in /  0.0mm
03:39 64.2 °F /  17.9 °C 60.4 °F /  15.8 °C 30.3in /  1024.6hPa SE 1.4mph /  2.3km/h 1.4mph /  2.3km/h 87% 0in /  0.0mm
03:44 64.2 °F /  17.9 °C 60.3 °F /  15.7 °C 30.3in /  1024.6hPa SE 1.4mph /  2.3km/h 2.3mph /  3.7km/h 87% 0in /  0.0mm
03:49 64.2 °F /  17.9 °C 60.3 °F /  15.7 °C 30.3in /  1024.6hPa SE 0.8mph /  1.3km/h 2.9mph /  4.7km/h 87% 0in /  0.0mm
03:54 64.2 °F /  17.9 °C 60.3 °F /  15.7 °C 30.3in /  1024.6hPa Calm   2.3mph /  3.7km/h 87% 0in /  0.0mm
03:59 64.2 °F /  17.9 °C 60.3 °F /  15.7 °C 30.3in /  1024.6hPa SE 0.6mph /  1km/h 3.6mph /  5.8km/h 87% 0in /  0.0mm
04:04 64.2 °F /  17.9 °C 60.3 °F /  15.7 °C 30.3in /  1024.6hPa SE 1.4mph /  2.3km/h 3.6mph /  5.8km/h 87% 0in /  0.0mm
04:09 64.2 °F /  17.9 °C 60.3 °F /  15.7 °C 30.3in /  1024.6hPa SE 1.8mph /  2.9km/h 4.7mph /  7.6km/h 87% 0in /  0.0mm
04:14 64 °F /  17.8 °C 60.1 °F /  15.6 °C 30.3in /  1024.5hPa SSE 2.4mph /  3.9km/h 4.6mph /  7.4km/h 87% 0in /  0.0mm
04:19 64 °F /  17.8 °C 60.1 °F /  15.6 °C 30.3in /  1024.5hPa Sur 2.7mph /  4.3km/h 4.6mph /  7.4km/h 87% 0in /  0.0mm
04:24 64 °F /  17.8 °C 60.3 °F /  15.7 °C 30.3in /  1024.5hPa SSO 3.1mph /  5km/h 4.6mph /  7.4km/h 87.8% 0in /  0.0mm
04:29 64 °F /  17.8 °C 60.4 °F /  15.8 °C 30.3in /  1024.5hPa SSO 2.8mph /  4.5km/h 5.8mph /  9.3km/h 88% 0in /  0.0mm
04:34 64 °F /  17.8 °C 60.4 °F /  15.8 °C 30.3in /  1024.5hPa SSO 2.4mph /  3.9km/h 5.8mph /  9.3km/h 88% 0in /  0.0mm
04:39 64 °F /  17.8 °C 60.4 °F /  15.8 °C 30.3in /  1024.5hPa SSO 2.6mph /  4.2km/h 3.5mph /  5.6km/h 88% 0in /  0.0mm
04:44 64 °F /  17.8 °C 60.4 °F /  15.8 °C 30.3in /  1024.5hPa SO 2.9mph /  4.7km/h 3.6mph /  5.8km/h 88% 0in /  0.0mm
04:49 64 °F /  17.8 °C 60.4 °F /  15.8 °C 30.3in /  1024.5hPa SO 2.5mph /  4.1km/h 3.5mph /  5.6km/h 88% 0in /  0.0mm
04:54 63.9 °F /  17.7 °C 60.3 °F /  15.7 °C 30.3in /  1024.5hPa SO 2mph /  3.2km/h 2.4mph /  3.9km/h 88% 0in /  0.0mm
04:59 63.9 °F /  17.7 °C 60.3 °F /  15.7 °C 30.3in /  1024.5hPa SO 1.7mph /  2.8km/h 3.5mph /  5.6km/h 88% 0in /  0.0mm
05:04 63.9 °F /  17.7 °C 60.3 °F /  15.7 °C 30.3in /  1024.5hPa SO 1.4mph /  2.3km/h 2.9mph /  4.7km/h 88% 0in /  0.0mm
05:09 63.9 °F /  17.7 °C 60.3 °F /  15.7 °C 30.3in /  1024.5hPa SSO 1.6mph /  2.6km/h 3.5mph /  5.6km/h 88% 0in /  0.0mm
05:14 63.9 °F /  17.7 °C 60.3 °F /  15.7 °C 30.3in /  1024.4hPa SSE 2mph /  3.2km/h 4.7mph /  7.6km/h 88% 0in /  0.0mm
05:19 63.9 °F /  17.7 °C 60.1 °F /  15.6 °C 30.3in /  1024.4hPa SSE 2.4mph /  3.8km/h 4.7mph /  7.6km/h 88% 0in /  0.0mm
05:24 63.7 °F /  17.6 °C 60.1 °F /  15.6 °C 30.3in /  1024.4hPa Sur 2.9mph /  4.7km/h 4.7mph /  7.6km/h 88% 0in /  0.0mm
05:29 63.7 °F /  17.6 °C 60.1 °F /  15.6 °C 30.3in /  1024.3hPa SE 3mph /  4.8km/h 5.2mph /  8.4km/h 88% 0in /  0.0mm
05:34 63.7 °F /  17.6 °C 60.1 °F /  15.6 °C 30.3in /  1024.3hPa SE 3.1mph /  5km/h 4.7mph /  7.6km/h 88% 0in /  0.0mm
05:39 63.3 °F /  17.4 °C 59.7 °F /  15.4 °C 30.3in /  1024.3hPa SE 3mph /  4.9km/h 4.6mph /  7.4km/h 88% 0in /  0.0mm
05:44 63.1 °F /  17.3 °C 59.5 °F /  15.3 °C 30.3in /  1024.3hPa SE 2.9mph /  4.7km/h 5.8mph /  9.3km/h 88% 0in /  0.0mm
05:49 63 °F /  17.2 °C 59.4 °F /  15.2 °C 30.3in /  1024.3hPa SE 2.9mph /  4.7km/h 4mph /  6.4km/h 88% 0in /  0.0mm
05:54 63 °F /  17.2 °C 59.2 °F /  15.1 °C 30.3in /  1024.4hPa ESE 2.9mph /  4.7km/h 3.6mph /  5.8km/h 88% 0in /  0.0mm
05:59 62.8 °F /  17.1 °C 59.4 °F /  15.2 °C 30.3in /  1024.4hPa SSE 2.7mph /  4.3km/h 3.6mph /  5.8km/h 88.7% 0in /  0.0mm
06:04 62.8 °F /  17.1 °C 59.5 °F /  15.3 °C 30.3in /  1024.4hPa Sur 2.4mph /  3.9km/h 3.6mph /  5.8km/h 89% 0in /  0.0mm
06:09 63 °F /  17.2 °C 59.5 °F /  15.3 °C 30.3in /  1024.4hPa Sur 2.2mph /  3.6km/h 3.6mph /  5.8km/h 89% 0in /  0.0mm
06:14 63 °F /  17.2 °C 59.7 °F /  15.4 °C 30.3in /  1024.3hPa Sur 2mph /  3.2km/h 3.5mph /  5.6km/h 89% 0in /  0.0mm
06:19 63 °F /  17.2 °C 59.7 °F /  15.4 °C 30.3in /  1024.3hPa Sur 1.9mph /  3.1km/h 2.4mph /  3.9km/h 89% 0in /  0.0mm
06:24 63 °F /  17.2 °C 59.7 °F /  15.4 °C 30.3in /  1024.4hPa Sur 1.8mph /  2.9km/h 2.3mph /  3.7km/h 89% 0in /  0.0mm
06:29 63 °F /  17.2 °C 59.7 °F /  15.4 °C 30.3in /  1024.4hPa Sur 1.1mph /  1.7km/h 1.4mph /  2.3km/h 89% 0in /  0.0mm
06:34 63 °F /  17.2 °C 59.5 °F /  15.3 °C 30.3in /  1024.4hPa Calm   2.4mph /  3.9km/h 89% 0in /  0.0mm
06:39 62.8 °F /  17.1 °C 59.4 °F /  15.2 °C 30.3in /  1024.6hPa Sur 0.6mph /  0.9km/h 3.5mph /  5.6km/h 89% 0in /  0.0mm
06:44 62.4 °F /  16.9 °C 59.2 °F /  15.1 °C 30.3in /  1024.6hPa Sur 1.4mph /  2.3km/h 3.5mph /  5.6km/h 89% 0in /  0.0mm
06:49 62.2 °F /  16.8 °C 59 °F /  15 °C 30.3in /  1024.6hPa Sur 1.6mph /  2.5km/h 2.4mph /  3.9km/h 89% 0in /  0.0mm
06:54 62.2 °F /  16.8 °C 59 °F /  15 °C 30.3in /  1024.6hPa Sur 1.8mph /  2.9km/h 2.4mph /  3.9km/h 89.1% 0in /  0.0mm
06:59 62.1 °F /  16.7 °C 59.2 °F /  15.1 °C 30.3in /  1024.6hPa Sur 1.6mph /  2.6km/h 2.3mph /  3.7km/h 90% 0in /  0.0mm
07:04 62.1 °F /  16.7 °C 59.2 °F /  15.1 °C 30.3in /  1024.6hPa Sur 1.4mph /  2.3km/h 2.4mph /  3.9km/h 90% 0in /  0.0mm
07:09 62.1 °F /  16.7 °C 59.2 °F /  15.1 °C 30.3in /  1024.7hPa Sur 0.8mph /  1.3km/h 2.3mph /  3.7km/h 90% 0in /  0.0mm
07:14 62.1 °F /  16.7 °C 59.2 °F /  15.1 °C 30.3in /  1024.7hPa Calm     90% 0in /  0.0mm
07:19 62.1 °F /  16.7 °C 59.2 °F /  15.1 °C 30.3in /  1024.7hPa Calm   2.3mph /  3.7km/h 90% 0in /  0.0mm
07:24 62.1 °F /  16.7 °C 59.4 °F /  15.2 °C 30.3in /  1024.7hPa Calm     90.9% 0in /  0.0mm
07:29 62.2 °F /  16.8 °C 59.4 °F /  15.2 °C 30.3in /  1024.7hPa Calm   2.9mph /  4.7km/h 90.1% 0in /  0.0mm
07:34 62.1 °F /  16.7 °C 59.2 °F /  15.1 °C 30.3in /  1024.7hPa Calm   2.9mph /  4.7km/h 90% 0in /  0.0mm
07:39 62.1 °F /  16.7 °C 59.2 °F /  15.1 °C 30.3in /  1024.8hPa Sur 0.6mph /  1km/h 3.6mph /  5.8km/h 90% 0in /  0.0mm
07:44 62.1 °F /  16.7 °C 59.2 °F /  15.1 °C 30.3in /  1024.8hPa Sur 1.4mph /  2.3km/h 3.5mph /  5.6km/h 90% 0in /  0.0mm
07:49 62.1 °F /  16.7 °C 59 °F /  15 °C 30.3in /  1024.8hPa Sur 1.4mph /  2.3km/h 2.3mph /  3.7km/h 90% 0in /  0.0mm
07:54 62.1 °F /  16.7 °C 59.2 °F /  15.1 °C 30.3in /  1024.9hPa Sur 1.4mph /  2.3km/h 3.6mph /  5.8km/h 90% 0in /  0.0mm
07:59 62.1 °F /  16.7 °C 59.2 °F /  15.1 °C 30.3in /  1024.9hPa Sur 1.7mph /  2.7km/h 3.6mph /  5.8km/h 90.4% 0in /  0.0mm
08:04 62.2 °F /  16.8 °C 59.4 °F /  15.2 °C 30.3in /  1024.9hPa Sur 2mph /  3.2km/h 2.9mph /  4.7km/h 90.2% 0in /  0.0mm
08:09 62.2 °F /  16.8 °C 59.4 °F /  15.2 °C 30.3in /  1025.0hPa Sur 1.2mph /  1.9km/h 2.4mph /  3.9km/h 90.4% 0in /  0.0mm
08:14 62.2 °F /  16.8 °C 59.4 °F /  15.2 °C 30.3in /  1025.0hPa Calm   2.4mph /  3.9km/h 90% 0in /  0.0mm
08:19 62.2 °F /  16.8 °C 59.4 °F /  15.2 °C 30.3in /  1025.0hPa Calm   1.8mph /  2.9km/h 90% 0in /  0.0mm
08:24 62.2 °F /  16.8 °C 59.2 °F /  15.1 °C 30.3in /  1025.0hPa Calm   2.3mph /  3.7km/h 90% 0in /  0.0mm
08:29 62.1 °F /  16.7 °C 59.2 °F /  15.1 °C 30.3in /  1025.0hPa SE 0.6mph /  1km/h 4.6mph /  7.4km/h 90% 0in /  0.0mm
08:34 62.1 °F /  16.7 °C 59.2 °F /  15.1 °C 30.3in /  1025.0hPa ESE 1.4mph /  2.3km/h 4.6mph /  7.4km/h 90% 0in /  0.0mm
08:39 62.2 °F /  16.8 °C 59.2 °F /  15.1 °C 30.3in /  1025.1hPa ESE 1.8mph /  2.9km/h 3.6mph /  5.8km/h 90% 0in /  0.0mm
08:44 62.1 °F /  16.7 °C 59.2 °F /  15.1 °C 30.3in /  1025.1hPa ESE 2.4mph /  3.9km/h 3.6mph /  5.8km/h 90% 0in /  0.0mm
08:49 62.2 °F /  16.8 °C 59 °F /  15 °C 30.3in /  1025.1hPa SE 2.2mph /  3.6km/h 4.6mph /  7.4km/h 89.5% 0in /  0.0mm
08:54 62.2 °F /  16.8 °C 59 °F /  15 °C 30.3in /  1025.2hPa SSE 2mph /  3.2km/h 4.7mph /  7.6km/h 89.3% 0in /  0.0mm
08:59 62.2 °F /  16.8 °C 59 °F /  15 °C 30.3in /  1025.2hPa Sur 2.4mph /  3.9km/h 4mph /  6.4km/h 89.2% 0in /  0.0mm
09:04 62.4 °F /  16.9 °C 59.4 °F /  15.2 °C 30.3in /  1025.2hPa Sur 2.9mph /  4.7km/h 4.6mph /  7.4km/h 90% 0in /  0.0mm
09:09 62.8 °F /  17.1 °C 59.7 °F /  15.4 °C 30.3in /  1025.3hPa Sur 2.5mph /  4.1km/h 3.6mph /  5.8km/h 90% 0in /  0.0mm
09:14 63 °F /  17.2 °C 59.9 °F /  15.5 °C 30.3in /  1025.3hPa SSO 2mph /  3.2km/h 4.6mph /  7.4km/h 89.5% 0in /  0.0mm
09:19 63.1 °F /  17.3 °C 59.9 °F /  15.5 °C 30.3in /  1025.3hPa SO 1.9mph /  3.1km/h 2.3mph /  3.7km/h 89% 0in /  0.0mm
09:24 63.3 °F /  17.4 °C 59.9 °F /  15.5 °C 30.3in /  1025.5hPa SO 1.8mph /  2.9km/h 2.9mph /  4.7km/h 88.7% 0in /  0.0mm
09:29 63.5 °F /  17.5 °C 59.9 °F /  15.5 °C 30.3in /  1025.5hPa SO 1.6mph /  2.6km/h 2.9mph /  4.7km/h 88% 0in /  0.0mm
09:34 63.7 °F /  17.6 °C 60.1 °F /  15.6 °C 30.3in /  1025.5hPa SO 1.4mph /  2.3km/h 3.5mph /  5.6km/h 88% 0in /  0.0mm
09:39 63.9 °F /  17.7 °C 60.3 °F /  15.7 °C 30.3in /  1025.7hPa SO 1.4mph /  2.3km/h 3.5mph /  5.6km/h 88% 0in /  0.0mm
09:44 64.2 °F /  17.9 °C 60.6 °F /  15.9 °C 30.3in /  1025.7hPa Sur 1.4mph /  2.3km/h 4.7mph /  7.6km/h 88% 0in /  0.0mm
09:49 64.8 °F /  18.2 °C 60.8 °F /  16 °C 30.3in /  1025.7hPa SSE 1.6mph /  2.6km/h 5.2mph /  8.4km/h 87.2% 0in /  0.0mm
09:54 64.9 °F /  18.3 °C 60.6 °F /  15.9 °C 30.3in /  1025.9hPa Sur 2mph /  3.2km/h 5.8mph /  9.3km/h 85.9% 0in /  0.0mm
09:59 65.1 °F /  18.4 °C 60.6 °F /  15.9 °C 30.3in /  1025.9hPa Sur 2.7mph /  4.4km/h 5.9mph /  9.5km/h 85% 0in /  0.0mm
10:04 65.5 °F /  18.6 °C 60.8 °F /  16 °C 30.3in /  1025.9hPa Sur 3.6mph /  5.8km/h 4.7mph /  7.6km/h 85% 0in /  0.0mm
10:09 65.7 °F /  18.7 °C 61 °F /  16.1 °C 30.3in /  1026.1hPa Sur 3.8mph /  6.1km/h 6.2mph /  10km/h 84.9% 0in /  0.0mm
10:14 65.8 °F /  18.8 °C 61 °F /  16.1 °C 30.3in /  1026.1hPa SSE 4mph /  6.4km/h 6.4mph /  10.3km/h 84.4% 0in /  0.0mm
10:19 66.2 °F /  19 °C 61.2 °F /  16.2 °C 30.3in /  1026.1hPa SSE 4mph /  6.4km/h 6.9mph /  11.1km/h 84% 0in /  0.0mm
10:24 66.4 °F /  19.1 °C 61.2 °F /  16.2 °C 30.3in /  1026.2hPa Sur 4mph /  6.4km/h 5.2mph /  8.4km/h 83.2% 0in /  0.0mm
10:29 66.6 °F /  19.2 °C 61.3 °F /  16.3 °C 30.3in /  1026.2hPa Sur 3.6mph /  5.8km/h 4.7mph /  7.6km/h 83% 0in /  0.0mm
10:34 66.9 °F /  19.4 °C 61.5 °F /  16.4 °C 30.3in /  1026.2hPa OSO 3.1mph /  5km/h 5.4mph /  8.7km/h 82.9% 0in /  0.0mm
10:39 67.3 °F /  19.6 °C 61.5 °F /  16.4 °C 30.3in /  1026.3hPa OSO 3mph /  4.8km/h 5.9mph /  9.5km/h 82% 0in /  0.0mm
10:44 67.5 °F /  19.7 °C 61.7 °F /  16.5 °C 30.3in /  1026.3hPa OSO 2.9mph /  4.7km/h 4.6mph /  7.4km/h 82% 0in /  0.0mm
10:49 67.6 °F /  19.8 °C 61.7 °F /  16.5 °C 30.3in /  1026.3hPa SSO 2.5mph /  4.1km/h 4.6mph /  7.4km/h 81.4% 0in /  0.0mm
10:54 68 °F /  20 °C 62.2 °F /  16.8 °C 30.3in /  1026.5hPa Oeste 2mph /  3.2km/h 3.5mph /  5.6km/h 81.5% 0in /  0.0mm
10:59 68.5 °F /  20.3 °C 62.2 °F /  16.8 °C 30.3in /  1026.5hPa OSO 1.9mph /  3.1km/h 4.6mph /  7.4km/h 80.1% 0in /  0.0mm
11:04 68.9 °F /  20.5 °C 62.2 °F /  16.8 °C 30.3in /  1026.5hPa Oeste 1.8mph /  2.9km/h 2.9mph /  4.7km/h 79.3% 0in /  0.0mm
11:09 69.3 °F /  20.7 °C 62.2 °F /  16.8 °C 30.3in /  1026.5hPa OSO 1.9mph /  3km/h 4.6mph /  7.4km/h 78.6% 0in /  0.0mm
11:14 69.6 °F /  20.9 °C 62.8 °F /  17.1 °C 30.3in /  1026.4hPa NO 2mph /  3.2km/h 3.6mph /  5.8km/h 78.9% 0in /  0.0mm
11:19 70 °F /  21.1 °C 62.6 °F /  17 °C 30.3in /  1026.4hPa OSO 2mph /  3.2km/h 4.6mph /  7.4km/h 77.3% 0in /  0.0mm
11:24 70.2 °F /  21.2 °C 62.6 °F /  17 °C 30.3in /  1026.4hPa OSO 2mph /  3.2km/h 2.9mph /  4.7km/h 77% 0in /  0.0mm
11:29 70.3 °F /  21.3 °C 62.8 °F /  17.1 °C 30.3in /  1026.4hPa Oeste 1.7mph /  2.8km/h 5.8mph /  9.3km/h 77% 0in /  0.0mm
11:34 70.7 °F /  21.5 °C 62.8 °F /  17.1 °C 30.3in /  1026.4hPa North 1.4mph /  2.3km/h 7.4mph /  11.9km/h 76.1% 0in /  0.0mm
11:39 71.1 °F /  21.7 °C 63 °F /  17.2 °C 30.3in /  1026.5hPa NNE 2.1mph /  3.3km/h 8.1mph /  13km/h 75.9% 0in /  0.0mm
11:44 71.1 °F /  21.7 °C 62.8 °F /  17.1 °C 30.3in /  1026.5hPa NNE 3.1mph /  5km/h 6.9mph /  11.1km/h 75.3% 0in /  0.0mm
11:49 71.1 °F /  21.7 °C 62.8 °F /  17.1 °C 30.3in /  1026.5hPa North 3.5mph /  5.6km/h 6.9mph /  11.1km/h 75% 0in /  0.0mm
11:54 71.2 °F /  21.8 °C 62.8 °F /  17.1 °C 30.3in /  1026.5hPa NNE 4mph /  6.4km/h 6.9mph /  11.1km/h 75% 0in /  0.0mm
11:59 71.6 °F /  22 °C 63.3 °F /  17.4 °C 30.3in /  1026.4hPa NNE 3.3mph /  5.3km/h 4.6mph /  7.4km/h 75% 0in /  0.0mm
12:04 72.1 °F /  22.3 °C 63.1 °F /  17.3 °C 30.3in /  1026.4hPa NE 2.4mph /  3.9km/h 6.9mph /  11.1km/h 73.4% 0in /  0.0mm
12:09 72.1 °F /  22.3 °C 62.8 °F /  17.1 °C 30.3in /  1026.4hPa ENE 2.9mph /  4.7km/h 6.9mph /  11.1km/h 72.2% 0in /  0.0mm
12:14 72.3 °F /  22.4 °C 63 °F /  17.2 °C 30.3in /  1026.3hPa NE 3.6mph /  5.8km/h 9.2mph /  14.8km/h 72.5% 0in /  0.0mm
12:19 72.1 °F /  22.3 °C 62.4 °F /  16.9 °C 30.3in /  1026.3hPa NE 3.9mph /  6.3km/h 6.9mph /  11.1km/h 71.5% 0in /  0.0mm
12:24 72 °F /  22.2 °C 62.4 °F /  16.9 °C 30.3in /  1026.3hPa NNE 4.3mph /  6.9km/h 8.7mph /  14km/h 71.8% 0in /  0.0mm
12:29 71.6 °F /  22 °C 61.9 °F /  16.6 °C 30.3in /  1026.2hPa NE 4.8mph /  7.7km/h 11.5mph /  18.5km/h 71.5% 0in /  0.0mm
12:34 71.6 °F /  22 °C 61.7 °F /  16.5 °C 30.3in /  1026.2hPa NE 5.4mph /  8.7km/h 11.5mph /  18.5km/h 71% 0in /  0.0mm
12:39 72 °F /  22.2 °C 61.9 °F /  16.6 °C 30.3in /  1026.2hPa ENE 5.6mph /  9km/h 8.1mph /  13km/h 70.7% 0in /  0.0mm
12:44 72.3 °F /  22.4 °C 61.2 °F /  16.2 °C 30.3in /  1026.1hPa NE 5.9mph /  9.5km/h 9.2mph /  14.8km/h 67.8% 0in /  0.0mm
12:49 72.7 °F /  22.6 °C 61.2 °F /  16.2 °C 30.3in /  1026.1hPa NE 5.7mph /  9.2km/h 9.2mph /  14.8km/h 67% 0in /  0.0mm
12:54 73 °F /  22.8 °C 61.2 °F /  16.2 °C 30.3in /  1026.1hPa NE 5.4mph /  8.7km/h 10.7mph /  17.2km/h 66.6% 0in /  0.0mm
12:59 73 °F /  22.8 °C 61.2 °F /  16.2 °C 30.3in /  1026.0hPa NE 5.3mph /  8.5km/h 7.6mph /  12.2km/h 66.3% 0in /  0.0mm
13:04 73.6 °F /  23.1 °C 61 °F /  16.1 °C 30.3in /  1026.0hPa ENE 5.2mph /  8.4km/h 12.7mph /  20.4km/h 64.8% 0in /  0.0mm
13:09 73.8 °F /  23.2 °C 60.6 °F /  15.9 °C 30.3in /  1026.0hPa ENE 5.5mph /  8.8km/h 10.4mph /  16.7km/h 63.7% 0in /  0.0mm
13:14 73.8 °F /  23.2 °C 60.4 °F /  15.8 °C 30.3in /  1025.8hPa NNE 5.9mph /  9.5km/h 13.8mph /  22.2km/h 63.1% 0in /  0.0mm
13:19 73.9 °F /  23.3 °C 60.4 °F /  15.8 °C 30.3in /  1025.8hPa NE 6.3mph /  10.2km/h 12.7mph /  20.4km/h 62.8% 0in /  0.0mm
13:24 74.1 °F /  23.4 °C 60.1 °F /  15.6 °C 30.3in /  1025.8hPa ENE 6.9mph /  11.1km/h 12.7mph /  20.4km/h 61.6% 0in /  0.0mm
13:29 74.7 °F /  23.7 °C 60.3 °F /  15.7 °C 30.3in /  1025.4hPa Este 6.6mph /  10.6km/h 11.5mph /  18.5km/h 61% 0in /  0.0mm
13:34 75 °F /  23.9 °C 60.6 °F /  15.9 °C 30.3in /  1025.4hPa ENE 6.2mph /  10km/h 10.4mph /  16.7km/h 61.1% 0in /  0.0mm
13:39 74.8 °F /  23.8 °C 60.4 °F /  15.8 °C 30.3in /  1025.4hPa NE 6.3mph /  10.1km/h 14mph /  22.5km/h 61% 0in /  0.0mm
13:44 74.5 °F /  23.6 °C 58.8 °F /  14.9 °C 30.3in /  1025.4hPa NE 6.4mph /  10.3km/h 17.3mph /  27.8km/h 58.3% 0in /  0.0mm
13:49 74.7 °F /  23.7 °C 59 °F /  15 °C 30.3in /  1025.4hPa NE 7.4mph /  11.9km/h 14mph /  22.5km/h 58.2% 0in /  0.0mm
13:54 74.7 °F /  23.7 °C 59 °F /  15 °C 30.3in /  1025.4hPa NE 8.7mph /  14km/h 15mph /  24.1km/h 58.1% 0in /  0.0mm
13:59 74.8 °F /  23.8 °C 59 °F /  15 °C 30.3in /  1025.2hPa NE 8.4mph /  13.6km/h 13mph /  20.9km/h 57.6% 0in /  0.0mm
14:04 75.2 °F /  24 °C 58.5 °F /  14.7 °C 30.3in /  1025.2hPa NNE 8.1mph /  13km/h 13mph /  20.9km/h 56.1% 0in /  0.0mm
14:09 75.4 °F /  24.1 °C 59.5 °F /  15.3 °C 30.3in /  1025.2hPa NNE 7.9mph /  12.7km/h 14.7mph /  23.7km/h 57.8% 0in /  0.0mm
14:14 75.2 °F /  24 °C 59.4 °F /  15.2 °C 30.3in /  1025.0hPa NNE 7.6mph /  12.2km/h 16.1mph /  25.9km/h 57.9% 0in /  0.0mm
14:19 75 °F /  23.9 °C 59 °F /  15 °C 30.3in /  1025.0hPa NE 8.6mph /  13.9km/h 16.1mph /  25.9km/h 57.3% 0in /  0.0mm
14:24 75.2 °F /  24 °C 58.6 °F /  14.8 °C 30.3in /  1025.0hPa NNE 10mph /  16.1km/h 16.1mph /  25.9km/h 56.2% 0in /  0.0mm
14:29 75.2 °F /  24 °C 58.6 °F /  14.8 °C 30.3in /  1024.7hPa NNE 9.9mph /  15.9km/h 17.3mph /  27.8km/h 56.3% 0in /  0.0mm
14:34 75 °F /  23.9 °C 58.8 °F /  14.9 °C 30.3in /  1024.7hPa NE 9.7mph /  15.6km/h 17.3mph /  27.8km/h 56.9% 0in /  0.0mm
14:39 75.6 °F /  24.2 °C 58.8 °F /  14.9 °C 30.3in /  1024.7hPa NE 9.8mph /  15.8km/h 16.1mph /  25.9km/h 56.3% 0in /  0.0mm
14:44 75.6 °F /  24.2 °C 58.1 °F /  14.5 °C 30.3in /  1024.7hPa NE 10mph /  16.1km/h 15mph /  24.1km/h 54.6% 0in /  0.0mm
14:49 75.7 °F /  24.3 °C 57.7 °F /  14.3 °C 30.3in /  1024.7hPa NE 9.7mph /  15.6km/h 12.7mph /  20.4km/h 54% 0in /  0.0mm
14:54 75.7 °F /  24.3 °C 57.9 °F /  14.4 °C 30.3in /  1024.7hPa NE 9.2mph /  14.8km/h 18.1mph /  29.1km/h 53.8% 0in /  0.0mm
14:59 75.4 °F /  24.1 °C 58.8 °F /  14.9 °C 30.3in /  1024.6hPa NE 9.4mph /  15.2km/h 19mph /  30.6km/h 56.2% 0in /  0.0mm
15:04 75.2 °F /  24 °C 58.8 °F /  14.9 °C 30.3in /  1024.6hPa NE 9.7mph /  15.6km/h 17.5mph /  28.2km/h 56.6% 0in /  0.0mm
15:09 75.4 °F /  24.1 °C 58.8 °F /  14.9 °C 30.3in /  1024.6hPa NE 9.5mph /  15.3km/h 13.8mph /  22.2km/h 56.6% 0in /  0.0mm
15:14 75.7 °F /  24.3 °C 58.6 °F /  14.8 °C 30.3in /  1024.4hPa ENE 9.2mph /  14.8km/h 17.5mph /  28.2km/h 55.5% 0in /  0.0mm
15:19 75.7 °F /  24.3 °C 58.3 °F /  14.6 °C 30.3in /  1024.4hPa ENE 8.5mph /  13.7km/h 11.8mph /  19km/h 54.8% 0in /  0.0mm
15:24 75.9 °F /  24.4 °C 57.9 °F /  14.4 °C 30.3in /  1024.4hPa ENE 7.6mph /  12.2km/h 16.1mph /  25.9km/h 53.8% 0in /  0.0mm
15:29 75.7 °F /  24.3 °C 57.7 °F /  14.3 °C 30.3in /  1024.3hPa NE 7.3mph /  11.8km/h 13mph /  20.9km/h 53.4% 0in /  0.0mm
15:34 75.7 °F /  24.3 °C 57.4 °F /  14.1 °C 30.3in /  1024.3hPa ENE 6.9mph /  11.1km/h 14mph /  22.5km/h 53% 0in /  0.0mm
15:39 75.7 °F /  24.3 °C 57.4 °F /  14.1 °C 30.3in /  1024.3hPa ENE 7.1mph /  11.5km/h 16.1mph /  25.9km/h 52.9% 0in /  0.0mm
15:44 75.7 °F /  24.3 °C 57.7 °F /  14.3 °C 30.2in /  1024.2hPa NE 7.4mph /  11.9km/h 17.3mph /  27.8km/h 53.9% 0in /  0.0mm
15:49 75.6 °F /  24.2 °C 57.9 °F /  14.4 °C 30.2in /  1024.2hPa ENE 8mph /  12.8km/h 16.1mph /  25.9km/h 54.2% 0in /  0.0mm
15:54 75.6 °F /  24.2 °C 57.2 °F /  14 °C 30.2in /  1024.2hPa NE 8.7mph /  14km/h 15mph /  24.1km/h 53% 0in /  0.0mm
15:55 75.4 °F /  24.1 °C 56.8 °F /  13.8 °C 30.2in /  1024.0hPa NE 8.7mph /  14km/h 12.5mph /  20.1km/h 52.4% 0in /  0.0mm
16:04 75.6 °F /  24.2 °C 56.7 °F /  13.7 °C 30.2in /  1024.0hPa NE 8.5mph /  13.7km/h 17.3mph /  27.8km/h 52% 0in /  0.0mm
16:09 75.4 °F /  24.1 °C 56.5 °F /  13.6 °C 30.2in /  1024.0hPa NE 8.5mph /  13.7km/h 17.3mph /  27.8km/h 52% 0in /  0.0mm
16:14 75.2 °F /  24 °C 56.3 °F /  13.5 °C 30.2in /  1023.9hPa NE 8.5mph /  13.7km/h 16.1mph /  25.9km/h 52% 0in /  0.0mm
16:19 75.4 °F /  24.1 °C 56.7 °F /  13.7 °C 30.2in /  1023.9hPa NE 8.3mph /  13.4km/h 13.8mph /  22.2km/h 52.3% 0in /  0.0mm
16:24 75.6 °F /  24.2 °C 57.4 °F /  14.1 °C 30.2in /  1023.9hPa NE 8.1mph /  13km/h 15mph /  24.1km/h 53.4% 0in /  0.0mm
16:29 75.4 °F /  24.1 °C 57.4 °F /  14.1 °C 30.2in /  1023.8hPa ENE 7.9mph /  12.7km/h 10.7mph /  17.2km/h 53.6% 0in /  0.0mm
16:34 75.4 °F /  24.1 °C 57.2 °F /  14 °C 30.2in /  1023.8hPa NE 7.6mph /  12.2km/h 17.5mph /  28.2km/h 53.2% 0in /  0.0mm
16:39 75 °F /  23.9 °C 57.2 °F /  14 °C 30.2in /  1023.8hPa NE 8mph /  12.9km/h 15mph /  24.1km/h 54% 0in /  0.0mm
16:44 74.7 °F /  23.7 °C 57 °F /  13.9 °C 30.2in /  1023.7hPa NE 8.7mph /  14km/h 14mph /  22.5km/h 54.3% 0in /  0.0mm
16:49 74.7 °F /  23.7 °C 56.5 °F /  13.6 °C 30.2in /  1023.7hPa NE 8.9mph /  14.3km/h 16.1mph /  25.9km/h 53.4% 0in /  0.0mm
16:54 74.7 °F /  23.7 °C 56.7 °F /  13.7 °C 30.2in /  1023.8hPa NE 9.2mph /  14.8km/h 16.1mph /  25.9km/h 53.5% 0in /  0.0mm
16:59 74.7 °F /  23.7 °C 57.4 °F /  14.1 °C 30.2in /  1023.8hPa NE 8.9mph /  14.3km/h 13.8mph /  22.2km/h 54.9% 0in /  0.0mm
17:04 74.7 °F /  23.7 °C 57.4 °F /  14.1 °C 30.2in /  1023.8hPa NE 8.5mph /  13.7km/h 13.8mph /  22.2km/h 55.1% 0in /  0.0mm
17:09 74.7 °F /  23.7 °C 57.4 °F /  14.1 °C 30.2in /  1023.8hPa NE 8mph /  12.9km/h 15mph /  24.1km/h 55% 0in /  0.0mm
17:14 74.5 °F /  23.6 °C 57.2 °F /  14 °C 30.2in /  1023.8hPa NE 7.4mph /  11.9km/h 15.2mph /  24.5km/h 55% 0in /  0.0mm
17:19 74.1 °F /  23.4 °C 57.4 °F /  14.1 °C 30.2in /  1023.8hPa NE 8.6mph /  13.8km/h 15mph /  24.1km/h 55.8% 0in /  0.0mm
17:24 74.3 °F /  23.5 °C 57.4 °F /  14.1 °C 30.2in /  1023.8hPa NE 10.2mph /  16.4km/h 15.2mph /  24.5km/h 55.4% 0in /  0.0mm
17:29 74.1 °F /  23.4 °C 57 °F /  13.9 °C 30.2in /  1023.8hPa NE 9.5mph /  15.3km/h 15.2mph /  24.5km/h 55% 0in /  0.0mm
17:34 74.1 °F /  23.4 °C 57 °F /  13.9 °C 30.2in /  1023.8hPa NE 8.5mph /  13.7km/h 16.3mph /  26.2km/h 55% 0in /  0.0mm
17:39 74.1 °F /  23.4 °C 57.7 °F /  14.3 °C 30.2in /  1023.8hPa NE 8.3mph /  13.4km/h 13.8mph /  22.2km/h 56.6% 0in /  0.0mm
17:44 73.9 °F /  23.3 °C 57.7 °F /  14.3 °C 30.2in /  1023.7hPa NNE 8.1mph /  13km/h 16.1mph /  25.9km/h 57.1% 0in /  0.0mm
17:49 73.8 °F /  23.2 °C 57.6 °F /  14.2 °C 30.2in /  1023.7hPa NE 8.1mph /  13km/h 11.5mph /  18.5km/h 57% 0in /  0.0mm
17:54 73.9 °F /  23.3 °C 57.7 °F /  14.3 °C 30.2in /  1023.7hPa NE 8.1mph /  13km/h 11.8mph /  19km/h 57.1% 0in /  0.0mm
17:59 73.9 °F /  23.3 °C 57.7 °F /  14.3 °C 30.2in /  1023.6hPa NE 7.3mph /  11.8km/h 11.8mph /  19km/h 57.1% 0in /  0.0mm
18:04 73.8 °F /  23.2 °C 57.6 °F /  14.2 °C 30.2in /  1023.6hPa NE 6.4mph /  10.3km/h 10.4mph /  16.7km/h 57% 0in /  0.0mm
18:09 73.8 °F /  23.2 °C 57.9 °F /  14.4 °C 30.2in /  1023.7hPa NE 6.4mph /  10.3km/h 12.5mph /  20.1km/h 57.6% 0in /  0.0mm
18:14 73.6 °F /  23.1 °C 58.1 °F /  14.5 °C 30.2in /  1023.7hPa NE 6.4mph /  10.3km/h 12.7mph /  20.4km/h 58.4% 0in /  0.0mm
18:19 73.4 °F /  23 °C 58.1 °F /  14.5 °C 30.2in /  1023.7hPa NE 6.9mph /  11.1km/h 15.2mph /  24.5km/h 59% 0in /  0.0mm
18:24 73.2 °F /  22.9 °C 57.7 °F /  14.3 °C 30.2in /  1023.7hPa NE 7.6mph /  12.2km/h 13.8mph /  22.2km/h 58.3% 0in /  0.0mm
18:29 73 °F /  22.8 °C 57.7 °F /  14.3 °C 30.2in /  1023.7hPa NE 7.6mph /  12.2km/h 10.7mph /  17.2km/h 58.7% 0in /  0.0mm
18:34 73 °F /  22.8 °C 58.5 °F /  14.7 °C 30.2in /  1023.7hPa NE 7.6mph /  12.2km/h 14mph /  22.5km/h 60.4% 0in /  0.0mm
18:39 72.9 °F /  22.7 °C 58.8 °F /  14.9 °C 30.2in /  1023.8hPa NE 7.6mph /  12.2km/h 14mph /  22.5km/h 61.5% 0in /  0.0mm
18:44 72.7 °F /  22.6 °C 58.8 °F /  14.9 °C 30.2in /  1023.8hPa NE 7.6mph /  12.2km/h 11.2mph /  18km/h 62% 0in /  0.0mm
18:49 72.5 °F /  22.5 °C 58.6 °F /  14.8 °C 30.2in /  1023.8hPa NE 7mph /  11.3km/h 11.8mph /  19km/h 62% 0in /  0.0mm
18:54 72.3 °F /  22.4 °C 58.8 °F /  14.9 °C 30.2in /  1023.8hPa NE 6.2mph /  10km/h 11.5mph /  18.5km/h 62.8% 0in /  0.0mm
18:59 72.1 °F /  22.3 °C 59.2 °F /  15.1 °C 30.2in /  1023.8hPa NE 6.8mph /  10.9km/h 12.7mph /  20.4km/h 63.8% 0in /  0.0mm
19:04 72 °F /  22.2 °C 59.4 °F /  15.2 °C 30.2in /  1023.8hPa NE 7.4mph /  11.9km/h 10.4mph /  16.7km/h 64.8% 0in /  0.0mm
19:09 71.8 °F /  22.1 °C 59.7 °F /  15.4 °C 30.2in /  1023.9hPa NE 6.9mph /  11.1km/h 9.2mph /  14.8km/h 65.7% 0in /  0.0mm
19:14 71.6 °F /  22 °C 59.7 °F /  15.4 °C 30.2in /  1023.9hPa NE 6.2mph /  10km/h 10.4mph /  16.7km/h 66.3% 0in /  0.0mm
19:19 71.2 °F /  21.8 °C 59.7 °F /  15.4 °C 30.2in /  1023.9hPa NE 5.6mph /  9km/h 8.1mph /  13km/h 67% 0in /  0.0mm
19:24 71.1 °F /  21.7 °C 59.5 °F /  15.3 °C 30.2in /  1024.0hPa NE 4.7mph /  7.6km/h 10.7mph /  17.2km/h 67% 0in /  0.0mm
19:29 70.9 °F /  21.6 °C 59.5 °F /  15.3 °C 30.2in /  1024.0hPa NE 5.3mph /  8.6km/h 10.4mph /  16.7km/h 67.5% 0in /  0.0mm
19:34 70.5 °F /  21.4 °C 59.5 °F /  15.3 °C 30.2in /  1024.0hPa NE 6.2mph /  10km/h 8.1mph /  13km/h 68% 0in /  0.0mm
19:39 70.3 °F /  21.3 °C 59.5 °F /  15.3 °C 30.2in /  1024.0hPa NE 5.6mph /  9km/h 10.7mph /  17.2km/h 68.5% 0in /  0.0mm
19:44 70.3 °F /  21.3 °C 59.5 °F /  15.3 °C 30.2in /  1024.0hPa NE 4.7mph /  7.6km/h 9.7mph /  15.6km/h 69% 0in /  0.0mm
19:49 70.2 °F /  21.2 °C 59.7 °F /  15.4 °C 30.2in /  1024.0hPa NE 5mph /  8.1km/h 9.7mph /  15.6km/h 69.7% 0in /  0.0mm
19:54 70 °F /  21.1 °C 59.7 °F /  15.4 °C 30.2in /  1024.1hPa NE 5.4mph /  8.7km/h 10.4mph /  16.7km/h 70% 0in /  0.0mm
19:59 69.6 °F /  20.9 °C 59.5 °F /  15.3 °C 30.2in /  1024.1hPa NE 5.4mph /  8.7km/h 8.1mph /  13km/h 70.2% 0in /  0.0mm
20:04 69.6 °F /  20.9 °C 59.7 °F /  15.4 °C 30.2in /  1024.1hPa NE 5.4mph /  8.7km/h 6.9mph /  11.1km/h 71% 0in /  0.0mm
20:09 69.4 °F /  20.8 °C 59.5 °F /  15.3 °C 30.2in /  1024.2hPa NE 4.8mph /  7.8km/h 8.1mph /  13km/h 71% 0in /  0.0mm
20:14 69.3 °F /  20.7 °C 59.5 °F /  15.3 °C 30.2in /  1024.2hPa NE 4mph /  6.4km/h 7.4mph /  11.9km/h 71% 0in /  0.0mm
20:19 69.1 °F /  20.6 °C 59.7 °F /  15.4 °C 30.2in /  1024.2hPa NE 4.1mph /  6.6km/h 7.4mph /  11.9km/h 71.8% 0in /  0.0mm
20:24 69.1 °F /  20.6 °C 59.5 °F /  15.3 °C 30.3in /  1024.3hPa NE 4.3mph /  6.9km/h 8.1mph /  13km/h 72% 0in /  0.0mm
20:29 68.7 °F /  20.4 °C 59.4 °F /  15.2 °C 30.3in /  1024.3hPa NE 4.7mph /  7.5km/h 8.1mph /  13km/h 72% 0in /  0.0mm
20:34 68.7 °F /  20.4 °C 59.4 °F /  15.2 °C 30.3in /  1024.3hPa NE 5.2mph /  8.4km/h 8.1mph /  13km/h 72% 0in /  0.0mm
20:39 68.7 °F /  20.4 °C 59.4 °F /  15.2 °C 30.3in /  1024.5hPa NE 5mph /  8km/h 6.9mph /  11.1km/h 72.4% 0in /  0.0mm
20:44 68.7 °F /  20.4 °C 59.7 °F /  15.4 °C 30.3in /  1024.5hPa NE 4.7mph /  7.6km/h 8.1mph /  13km/h 73% 0in /  0.0mm
20:49 68.7 °F /  20.4 °C 59.7 °F /  15.4 °C 30.3in /  1024.5hPa NE 4.9mph /  7.9km/h 8.1mph /  13km/h 73% 0in /  0.0mm
20:54 68.7 °F /  20.4 °C 59.7 °F /  15.4 °C 30.3in /  1024.5hPa NE 5.2mph /  8.4km/h 5.8mph /  9.3km/h 73% 0in /  0.0mm
20:59 68.5 °F /  20.3 °C 59.5 °F /  15.3 °C 30.3in /  1024.5hPa NE 4.5mph /  7.3km/h 4.7mph /  7.6km/h 73% 0in /  0.0mm
21:04 68.5 °F /  20.3 °C 59.5 °F /  15.3 °C 30.3in /  1024.5hPa ENE 3.6mph /  5.8km/h 5.9mph /  9.5km/h 73% 0in /  0.0mm
21:09 68.5 °F /  20.3 °C 59.7 °F /  15.4 °C 30.3in /  1024.6hPa NE 3.4mph /  5.4km/h 5.8mph /  9.3km/h 73.8% 0in /  0.0mm
21:14 68.4 °F /  20.2 °C 59.7 °F /  15.4 °C 30.3in /  1024.6hPa ENE 3.1mph /  5km/h 6.2mph /  10km/h 74% 0in /  0.0mm
21:19 68.4 °F /  20.2 °C 59.7 °F /  15.4 °C 30.3in /  1024.6hPa ENE 3.1mph /  5km/h 5.8mph /  9.3km/h 74% 0in /  0.0mm
21:24 68.2 °F /  20.1 °C 59.5 °F /  15.3 °C 30.3in /  1024.6hPa NE 3.1mph /  5km/h 4.7mph /  7.6km/h 74% 0in /  0.0mm
21:29 68.2 °F /  20.1 °C 59.5 °F /  15.3 °C 30.3in /  1024.6hPa NNE 2.8mph /  4.5km/h 3.5mph /  5.6km/h 74% 0in /  0.0mm
21:34 67.8 °F /  19.9 °C 59.5 °F /  15.3 °C 30.3in /  1024.6hPa NNO 2.4mph /  3.9km/h 4.6mph /  7.4km/h 74.5% 0in /  0.0mm
21:39 67.6 °F /  19.8 °C 59.4 °F /  15.2 °C 30.3in /  1024.8hPa NNO 2.4mph /  3.9km/h 3.6mph /  5.8km/h 75% 0in /  0.0mm
21:44 67.5 °F /  19.7 °C 59.5 °F /  15.3 °C 30.3in /  1024.8hPa NNO 2.4mph /  3.9km/h 3.5mph /  5.6km/h 75.8% 0in /  0.0mm
21:49 67.1 °F /  19.5 °C 59.4 °F /  15.2 °C 30.3in /  1024.8hPa NNO 2.1mph /  3.4km/h 2.4mph /  3.9km/h 76.5% 0in /  0.0mm
21:54 66.9 °F /  19.4 °C 59.5 °F /  15.3 °C 30.3in /  1024.8hPa North 1.8mph /  2.9km/h 3.6mph /  5.8km/h 77% 0in /  0.0mm
21:59 66.9 °F /  19.4 °C 59.5 °F /  15.3 °C 30.3in /  1024.7hPa ENE 1.9mph /  3km/h 3.6mph /  5.8km/h 77% 0in /  0.0mm
22:04 66.9 °F /  19.4 °C 59.5 °F /  15.3 °C 30.3in /  1024.7hPa Este 2mph /  3.2km/h 4.6mph /  7.4km/h 77% 0in /  0.0mm
22:09 66.9 °F /  19.4 °C 59.5 °F /  15.3 °C 30.3in /  1024.7hPa NE 2.2mph /  3.5km/h 4.6mph /  7.4km/h 77% 0in /  0.0mm
22:14 66.9 °F /  19.4 °C 59.5 °F /  15.3 °C 30.3in /  1024.6hPa ENE 2.4mph /  3.9km/h 4.6mph /  7.4km/h 77% 0in /  0.0mm
22:19 66.9 °F /  19.4 °C 59.5 °F /  15.3 °C 30.3in /  1024.6hPa ENE 2.2mph /  3.6km/h 3.6mph /  5.8km/h 77% 0in /  0.0mm
22:24 66.9 °F /  19.4 °C 59.5 °F /  15.3 °C 30.3in /  1024.7hPa ENE 2mph /  3.2km/h 3.6mph /  5.8km/h 77% 0in /  0.0mm
22:29 66.7 °F /  19.3 °C 59.4 °F /  15.2 °C 30.3in /  1024.7hPa ENE 2mph /  3.2km/h 3.5mph /  5.6km/h 77% 0in /  0.0mm
22:34 66.7 °F /  19.3 °C 59.4 °F /  15.2 °C 30.3in /  1024.7hPa ENE 2mph /  3.2km/h 2.3mph /  3.7km/h 77.6% 0in /  0.0mm
22:39 66.6 °F /  19.2 °C 59.5 °F /  15.3 °C 30.3in /  1024.8hPa ENE 1.2mph /  1.9km/h   78% 0in /  0.0mm
22:44 66.4 °F /  19.1 °C 59.4 °F /  15.2 °C 30.3in /  1024.8hPa Calm     78% 0in /  0.0mm
22:49 66.4 °F /  19.1 °C 59.2 °F /  15.1 °C 30.3in /  1024.8hPa Calm   4.6mph /  7.4km/h 78% 0in /  0.0mm
22:54 66 °F /  18.9 °C 59.2 °F /  15.1 °C 30.3in /  1024.9hPa Calm   2.3mph /  3.7km/h 78.4% 0in /  0.0mm
22:59 66 °F /  18.9 °C 59.4 °F /  15.2 °C 30.3in /  1024.9hPa Calm   2.3mph /  3.7km/h 79% 0in /  0.0mm
23:04 65.8 °F /  18.8 °C 59.2 °F /  15.1 °C 30.3in /  1024.9hPa Calm   4.6mph /  7.4km/h 79% 0in /  0.0mm
23:09 65.8 °F /  18.8 °C 59.2 °F /  15.1 °C 30.3in /  1024.9hPa ONO 0.9mph /  1.4km/h 4.6mph /  7.4km/h 79% 0in /  0.0mm
23:14 65.7 °F /  18.7 °C 59.4 °F /  15.2 °C 30.3in /  1024.8hPa ONO 2mph /  3.2km/h 3.5mph /  5.6km/h 79.9% 0in /  0.0mm
23:19 65.7 °F /  18.7 °C 59.4 °F /  15.2 °C 30.3in /  1024.8hPa ONO 2mph /  3.2km/h 3.6mph /  5.8km/h 80% 0in /  0.0mm
23:24 65.5 °F /  18.6 °C 59.2 °F /  15.1 °C 30.3in /  1024.9hPa ONO 2mph /  3.2km/h 2.3mph /  3.7km/h 80% 0in /  0.0mm
23:29 65.5 °F /  18.6 °C 59.2 °F /  15.1 °C 30.3in /  1024.9hPa ONO 1.2mph /  1.9km/h 3.6mph /  5.8km/h 80% 0in /  0.0mm
23:34 65.3 °F /  18.5 °C 59.2 °F /  15.1 °C 30.3in /  1024.9hPa Calm   2.4mph /  3.9km/h 80.7% 0in /  0.0mm
23:39 65.1 °F /  18.4 °C 59.2 °F /  15.1 °C 30.3in /  1025.0hPa ONO 0.6mph /  1km/h 3.1mph /  5km/h 81% 0in /  0.0mm
23:44 65.1 °F /  18.4 °C 59 °F /  15 °C 30.3in /  1025.0hPa ONO 1.4mph /  2.3km/h 4.6mph /  7.4km/h 81% 0in /  0.0mm
23:49 64.9 °F /  18.3 °C 59 °F /  15 °C 30.3in /  1025.0hPa ONO 1.7mph /  2.7km/h 3.6mph /  5.8km/h 81% 0in /  0.0mm
23:54 64.8 °F /  18.2 °C 58.8 °F /  14.9 °C 30.3in /  1025.0hPa ONO 2mph /  3.2km/h 3.5mph /  5.6km/h 81% 0in /  0.0mm
23:59 64.8 °F /  18.2 °C 58.8 °F /  14.9 °C 30.3in /  1025.0hPa ONO 1.7mph /  2.8km/h 2.9mph /  4.7km/h 81% 0in /  0.0mm
Murcia-Puente Tocinos, Espa?a
Compliments of Weather Underground - 3 mb

La estación de MeteoMurcia.com, publica sus datos en los siguientes proyectos:

Weather Underground PWS IMURCIAP2 Meteoclimatic www.awekas.at

W3Counter
Web Analytics